createdAt,value
2023-12-10T00:04:24.013Z,67.31
2023-12-10T00:09:28.589Z,68.58
2023-12-10T00:14:33.592Z,71.00
2023-12-10T00:19:36.829Z,68.65
2023-12-10T00:24:39.978Z,68.41
2023-12-10T00:29:44.954Z,75.95
2023-12-10T00:34:49.439Z,73.15
2023-12-10T00:39:52.630Z,71.57
2023-12-10T00:44:57.172Z,75.95
2023-12-10T00:50:00.380Z,79.11
2023-12-10T00:55:04.108Z,81.02
2023-12-10T01:00:13.622Z,77.99
2023-12-10T01:05:17.497Z,77.98
2023-12-10T01:10:20.911Z,80.29
2023-12-10T01:15:31.870Z,80.44
2023-12-10T01:20:35.958Z,80.05
2023-12-10T01:25:39.222Z,83.22
2023-12-10T01:30:43.886Z,86.30
2023-12-10T01:35:47.207Z,84.48
2023-12-10T01:40:50.487Z,84.98
2023-12-10T01:45:55.914Z,87.11
2023-12-10T01:50:59.262Z,77.96
2023-12-10T01:56:02.681Z,82.20
2023-12-10T02:01:08.384Z,84.15
2023-12-10T02:06:11.612Z,87.11
2023-12-10T02:11:15.656Z,86.98
2023-12-10T02:16:20.213Z,88.60
2023-12-10T02:21:23.387Z,89.75
2023-12-10T02:26:28.153Z,90.76
2023-12-10T02:31:31.351Z,90.80
2023-12-10T02:36:34.523Z,91.56
2023-12-10T02:41:39.033Z,92.21
2023-12-10T02:46:45.798Z,92.58
2023-12-10T02:51:49.173Z,91.02
2023-12-10T02:56:53.769Z,92.74
2023-12-10T03:01:56.890Z,97.30
2023-12-10T03:07:00.021Z,97.51
2023-12-10T03:12:05.087Z,96.99
2023-12-10T03:17:08.407Z,97.19
2023-12-10T03:22:11.588Z,100.00
2023-12-10T03:27:16.168Z,97.80
2023-12-10T03:32:19.366Z,95.38
2023-12-10T03:37:22.799Z,93.35
2023-12-10T03:42:27.689Z,94.67
2023-12-10T03:47:31.188Z,93.19
2023-12-10T03:52:34.421Z,92.38
2023-12-10T03:57:39.089Z,91.55
2023-12-10T04:02:44.803Z,90.21
2023-12-10T04:07:50.103Z,90.75
2023-12-10T04:12:54.741Z,92.86
2023-12-10T04:17:58.517Z,93.81
2023-12-10T04:23:01.715Z,92.82
2023-12-10T04:28:08.119Z,94.08
2023-12-10T04:33:11.469Z,95.95
2023-12-10T04:38:14.632Z,94.65
2023-12-10T04:43:19.180Z,92.18
2023-12-10T04:48:22.446Z,92.56
2023-12-10T04:53:25.621Z,93.72
2023-12-10T04:58:30.680Z,93.94
2023-12-10T05:03:34.308Z,93.03
2023-12-10T05:08:37.527Z,93.76
2023-12-10T05:13:42.053Z,92.96
2023-12-10T05:18:45.404Z,93.93
2023-12-10T05:23:48.668Z,92.21
2023-12-10T05:28:53.225Z,90.52
2023-12-10T05:33:56.379Z,91.71
2023-12-10T05:38:59.554Z,92.99
2023-12-10T05:44:04.200Z,91.40
2023-12-10T05:49:07.776Z,91.89
2023-12-10T05:54:11.091Z,92.38
2023-12-10T05:59:16.207Z,91.37
2023-12-10T06:04:19.456Z,89.77
2023-12-10T06:09:22.710Z,89.38
2023-12-10T06:14:27.303Z,93.16
2023-12-10T06:19:30.573Z,88.86
2023-12-10T06:24:33.863Z,87.88
2023-12-10T06:29:40.533Z,87.99
2023-12-10T06:34:43.822Z,88.39
2023-12-10T06:39:47.111Z,87.88
2023-12-10T06:44:51.759Z,88.56
2023-12-10T06:49:54.996Z,87.16
2023-12-10T06:55:00.839Z,88.33
2023-12-10T07:00:07.401Z,87.20
2023-12-10T07:05:10.814Z,88.13
2023-12-10T07:10:14.028Z,86.46
2023-12-10T07:15:18.684Z,87.56
2023-12-10T07:20:21.839Z,87.19
2023-12-10T07:25:25.248Z,87.46
2023-12-10T07:30:30.553Z,86.75
2023-12-10T07:35:33.776Z,87.82
2023-12-10T07:40:36.965Z,86.15
2023-12-10T07:45:41.546Z,85.53
2023-12-10T07:50:44.737Z,85.91
2023-12-10T07:55:47.969Z,84.48
2023-12-10T08:00:52.865Z,83.46
2023-12-10T08:05:56.170Z,84.88
2023-12-10T08:11:00.295Z,84.06
2023-12-10T08:16:06.148Z,82.92
2023-12-10T08:21:12.004Z,82.94
2023-12-10T08:26:15.173Z,82.81
2023-12-10T08:31:19.768Z,83.45
2023-12-10T08:36:23.001Z,83.52
2023-12-10T08:41:26.185Z,82.13
2023-12-10T08:46:30.735Z,82.91
2023-12-10T08:51:33.939Z,81.92
2023-12-10T08:56:37.098Z,81.83
2023-12-10T09:01:41.704Z,83.01
2023-12-10T09:06:44.972Z,82.89
2023-12-10T09:11:49.038Z,82.91
2023-12-10T09:16:53.984Z,82.75
2023-12-10T09:21:57.520Z,83.48
2023-12-10T09:27:01.375Z,81.48
2023-12-10T09:32:06.666Z,81.28
2023-12-10T09:37:11.913Z,81.94
2023-12-10T09:42:15.099Z,80.85
2023-12-10T09:47:19.753Z,80.30
2023-12-10T09:52:22.969Z,79.18
2023-12-10T09:57:29.297Z,80.11
2023-12-10T10:02:34.542Z,80.22
2023-12-10T10:07:38.067Z,78.92
2023-12-10T10:12:41.351Z,79.39
2023-12-10T10:17:47.501Z,79.23
2023-12-10T10:22:52.320Z,78.30
2023-12-10T10:27:55.498Z,77.60
2023-12-10T10:33:00.446Z,76.69
2023-12-10T10:38:03.672Z,76.68
2023-12-10T10:43:06.859Z,76.12
2023-12-10T10:48:11.686Z,74.69
2023-12-10T10:53:15.381Z,74.06
2023-12-10T10:58:25.777Z,74.90
2023-12-10T11:03:31.141Z,74.08
2023-12-10T11:08:35.526Z,73.55
2023-12-10T11:13:49.013Z,73.63
2023-12-10T11:18:54.941Z,72.61
2023-12-10T11:23:58.303Z,71.63
2023-12-10T11:29:04.099Z,71.07
2023-12-10T11:34:08.730Z,68.82
2023-12-10T11:39:14.917Z,70.41
2023-12-10T11:44:18.083Z,68.24
2023-12-10T11:49:22.996Z,67.38
2023-12-10T11:54:26.244Z,67.27
2023-12-10T11:59:29.491Z,66.69
2023-12-10T12:04:35.164Z,65.29
2023-12-10T12:09:39.943Z,64.44
2023-12-10T12:14:43.466Z,63.45
2023-12-10T12:19:48.480Z,62.68
2023-12-10T12:24:51.823Z,63.20
2023-12-10T12:29:54.982Z,63.31
2023-12-10T12:34:59.611Z,63.87
2023-12-10T12:40:05.236Z,62.11
2023-12-10T12:45:10.043Z,61.18
2023-12-10T12:50:14.587Z,60.92
2023-12-10T12:55:18.162Z,60.67
2023-12-10T13:00:21.512Z,60.44
2023-12-10T13:05:26.157Z,61.44
2023-12-10T13:10:29.342Z,61.64
2023-12-10T13:15:32.699Z,62.06
2023-12-10T13:20:37.234Z,63.33
2023-12-10T13:25:40.466Z,63.50
2023-12-10T13:30:43.656Z,62.80
2023-12-10T13:35:48.278Z,63.20
2023-12-10T13:40:51.502Z,63.90
2023-12-10T13:45:55.959Z,63.75
2023-12-10T13:51:00.556Z,64.75
2023-12-10T13:56:04.749Z,64.26
2023-12-10T14:01:08.090Z,63.98
2023-12-10T14:06:12.755Z,64.34
2023-12-10T14:11:17.026Z,64.06
2023-12-10T14:16:21.415Z,65.21
2023-12-10T14:21:32.385Z,64.58
2023-12-10T14:26:36.308Z,65.02
2023-12-10T14:31:39.570Z,65.06
2023-12-10T14:36:44.638Z,65.97
2023-12-10T14:41:48.025Z,64.33
2023-12-10T14:46:51.174Z,63.71
2023-12-10T14:51:55.919Z,64.44
2023-12-10T14:56:59.204Z,65.35
2023-12-10T15:02:09.589Z,66.28
2023-12-10T15:07:16.790Z,67.98
2023-12-10T15:12:20.019Z,66.12
2023-12-10T15:17:23.231Z,67.72
2023-12-10T15:22:29.068Z,69.08
2023-12-10T15:27:32.580Z,69.43
2023-12-10T15:32:36.136Z,69.55
2023-12-10T15:37:40.636Z,71.61
2023-12-10T15:42:45.610Z,72.51
2023-12-10T15:47:51.204Z,73.31
2023-12-10T15:52:55.742Z,73.17
2023-12-10T15:57:58.981Z,73.30
2023-12-10T16:03:02.282Z,74.17
2023-12-10T16:08:06.946Z,72.97
2023-12-10T16:13:10.175Z,76.31
2023-12-10T16:18:13.614Z,76.21
2023-12-10T16:23:18.233Z,73.98
2023-12-10T16:28:21.390Z,74.33
2023-12-10T16:33:26.059Z,74.46
2023-12-10T16:38:30.796Z,72.70
2023-12-10T16:43:35.447Z,73.19
2023-12-10T16:48:38.720Z,72.61
2023-12-10T16:53:43.294Z,71.79
2023-12-10T16:58:46.677Z,73.16
2023-12-10T17:03:49.896Z,71.02
2023-12-10T17:08:54.532Z,70.86
2023-12-10T17:13:57.849Z,70.21
2023-12-10T17:19:01.235Z,69.57
2023-12-10T17:24:06.315Z,69.65
2023-12-10T17:29:09.488Z,69.99
2023-12-10T17:34:13.466Z,69.55
2023-12-10T17:39:18.476Z,69.04
2023-12-10T17:44:21.674Z,68.91
2023-12-10T17:49:24.933Z,68.06
2023-12-10T17:54:31.121Z,66.75
2023-12-10T17:59:34.605Z,67.38
2023-12-10T18:04:37.781Z,67.49
2023-12-10T18:09:42.400Z,67.28
2023-12-10T18:14:45.650Z,68.05
2023-12-10T18:19:48.970Z,68.40
2023-12-10T18:24:53.555Z,67.24
2023-12-10T18:29:56.728Z,66.11
2023-12-10T18:35:00.008Z,66.97
2023-12-10T18:40:05.250Z,65.85
2023-12-10T18:45:09.453Z,65.14
2023-12-10T18:50:12.661Z,64.77
2023-12-10T18:55:17.417Z,65.19
2023-12-10T19:00:21.424Z,63.83
2023-12-10T19:05:24.674Z,63.94
2023-12-10T19:10:29.908Z,64.65
2023-12-10T19:15:33.163Z,65.12
2023-12-10T19:20:36.344Z,64.64
2023-12-10T19:25:41.492Z,65.43
2023-12-10T19:30:44.715Z,65.22
2023-12-10T19:35:47.851Z,65.61
2023-12-10T19:40:54.651Z,64.76
2023-12-10T19:45:57.960Z,65.36
2023-12-10T19:51:02.654Z,67.12
2023-12-10T19:56:08.932Z,68.15
2023-12-10T20:01:12.209Z,68.45
2023-12-10T20:06:15.954Z,72.73
2023-12-10T20:11:20.533Z,74.01
2023-12-10T20:16:23.724Z,75.95
2023-12-10T20:21:26.994Z,78.40
2023-12-10T20:26:40.106Z,80.33
2023-12-10T20:31:46.410Z,84.13
2023-12-10T20:36:49.621Z,84.92
2023-12-10T20:41:54.379Z,85.76
2023-12-10T20:46:57.630Z,86.05
2023-12-10T20:52:00.871Z,85.39
2023-12-10T20:57:05.724Z,85.90
2023-12-10T21:02:09.348Z,87.97
2023-12-10T21:07:12.593Z,88.27
2023-12-10T21:12:17.162Z,88.98
2023-12-10T21:17:20.319Z,90.04
2023-12-10T21:22:23.875Z,89.44
2023-12-10T21:27:28.964Z,89.52
2023-12-10T21:32:32.389Z,89.25
2023-12-10T21:37:35.516Z,89.49
2023-12-10T21:42:40.090Z,89.72
2023-12-10T21:47:43.363Z,91.70
2023-12-10T21:52:46.660Z,92.91
2023-12-10T21:57:51.170Z,93.83
2023-12-10T22:02:54.376Z,94.43
2023-12-10T22:07:57.568Z,97.16
2023-12-10T22:13:02.207Z,97.21
2023-12-10T22:18:05.491Z,98.04
2023-12-10T22:23:08.746Z,97.05
2023-12-10T22:28:13.611Z,98.32
2023-12-10T22:33:16.953Z,98.99
2023-12-10T22:38:20.173Z,98.68
2023-12-10T22:43:24.772Z,99.27
2023-12-10T22:48:28.035Z,99.78
2023-12-10T22:53:31.467Z,100.00
2023-12-10T22:58:36.004Z,100.00
2023-12-10T23:03:39.348Z,100.00
2023-12-10T23:08:42.633Z,100.00
2023-12-10T23:13:47.183Z,100.00
2023-12-10T23:18:50.396Z,100.00
2023-12-10T23:23:53.530Z,100.00
2023-12-10T23:28:58.310Z,100.00
2023-12-10T23:34:02.201Z,100.00
2023-12-10T23:39:05.568Z,100.00
2023-12-10T23:44:10.609Z,100.00
2023-12-10T23:49:14.216Z,100.00
2023-12-10T23:54:17.395Z,100.00
2023-12-10T23:59:22.335Z,100.00
